sensor_id;sensor_type;location;lat;lon;timestamp;pressure;altitude;pressure_sealevel;temperature;humidity
79413;BME280;68863;49.528;11.010;2023-08-17T00:14:25;98385.44;;;24.12;61.05
79413;BME280;68863;49.528;11.010;2023-08-17T00:25:35;98385.72;;;24.03;62.02
79413;BME280;68863;49.528;11.010;2023-08-17T00:29:04;98398.44;;;23.94;62.72
79413;BME280;68863;49.528;11.010;2023-08-17T00:30:42;98392.31;;;23.79;63.45
79413;BME280;68863;49.528;11.010;2023-08-17T00:31:59;98397.25;;;23.60;64.66
79413;BME280;68863;49.528;11.010;2023-08-17T00:33:28;98395.03;;;23.64;64.46
79413;BME280;68863;49.528;11.010;2023-08-17T00:36:41;98392.97;;;23.81;63.43
79413;BME280;68863;49.528;11.010;2023-08-17T00:40:42;98407.78;;;23.77;63.45
79413;BME280;68863;49.528;11.010;2023-08-17T00:44:21;98424.22;;;23.74;62.91
79413;BME280;68863;49.528;11.010;2023-08-17T00:45:22;98433.28;;;23.58;63.39
79413;BME280;68863;49.528;11.010;2023-08-17T00:46:55;98434.13;;;23.43;63.99
79413;BME280;68863;49.528;11.010;2023-08-17T00:48:14;98442.56;;;23.26;64.92
79413;BME280;68863;49.528;11.010;2023-08-17T00:49:17;98440.06;;;23.39;63.99
79413;BME280;68863;49.528;11.010;2023-08-17T00:52:39;98428.59;;;23.30;64.30
79413;BME280;68863;49.528;11.010;2023-08-17T01:03:46;98432.56;;;23.49;63.49
79413;BME280;68863;49.528;11.010;2023-08-17T01:21:17;98427.72;;;23.59;63.22
79413;BME280;68863;49.528;11.010;2023-08-17T01:24:54;98424.59;;;23.56;62.90
79413;BME280;68863;49.528;11.010;2023-08-17T01:29:44;98420.09;;;23.41;63.82
79413;BME280;68863;49.528;11.010;2023-08-17T01:36:00;98399.22;;;23.37;64.09
79413;BME280;68863;49.528;11.010;2023-08-17T01:38:54;98403.25;;;23.47;63.50
79413;BME280;68863;49.528;11.010;2023-08-17T01:40:23;98402.72;;;23.52;63.67
79413;BME280;68863;49.528;11.010;2023-08-17T01:43:50;98387.38;;;23.46;63.90
79413;BME280;68863;49.528;11.010;2023-08-17T01:45:17;98394.03;;;23.35;64.44
79413;BME280;68863;49.528;11.010;2023-08-17T01:47:07;98393.78;;;23.30;64.32
79413;BME280;68863;49.528;11.010;2023-08-17T01:48:32;98396.00;;;23.27;64.18
79413;BME280;68863;49.528;11.010;2023-08-17T01:56:58;98392.28;;;23.42;64.25
79413;BME280;68863;49.528;11.010;2023-08-17T02:04:35;98382.53;;;23.71;62.63
79413;BME280;68863;49.528;11.010;2023-08-17T02:05:59;98381.31;;;23.74;63.11
79413;BME280;68863;49.528;11.010;2023-08-17T02:07:34;98379.41;;;23.53;64.03
79413;BME280;68863;49.528;11.010;2023-08-17T02:13:41;98381.69;;;23.56;63.49
79413;BME280;68863;49.528;11.010;2023-08-17T02:28:07;98370.44;;;23.60;63.68
79413;BME280;68863;49.528;11.010;2023-08-17T02:30:07;98367.47;;;23.55;63.82
79413;BME280;68863;49.528;11.010;2023-08-17T02:31:38;98361.72;;;23.37;64.00
79413;BME280;68863;49.528;11.010;2023-08-17T02:33:49;98354.72;;;23.21;64.15
79413;BME280;68863;49.528;11.010;2023-08-17T02:52:43;98343.03;;;23.29;64.44
79413;BME280;68863;49.528;11.010;2023-08-17T02:59:05;98347.31;;;23.23;64.34
79413;BME280;68863;49.528;11.010;2023-08-17T03:04:38;98356.63;;;23.42;63.46
79413;BME280;68863;49.528;11.010;2023-08-17T03:14:37;98339.16;;;23.31;63.61
79413;BME280;68863;49.528;11.010;2023-08-17T03:18:51;98345.47;;;23.09;65.51
79413;BME280;68863;49.528;11.010;2023-08-17T03:20:45;98351.28;;;23.12;64.75
79413;BME280;68863;49.528;11.010;2023-08-17T03:33:08;98351.38;;;23.34;63.49
79413;BME280;68863;49.528;11.010;2023-08-17T03:36:09;98344.09;;;23.13;64.06
79413;BME280;68863;49.528;11.010;2023-08-17T03:37:37;98346.50;;;23.08;64.37
79413;BME280;68863;49.528;11.010;2023-08-17T03:40:22;98355.72;;;23.05;64.77
79413;BME280;68863;49.528;11.010;2023-08-17T03:41:38;98347.06;;;23.03;65.17
79413;BME280;68863;49.528;11.010;2023-08-17T03:42:55;98345.88;;;23.06;65.14
79413;BME280;68863;49.528;11.010;2023-08-17T03:45:36;98342.25;;;23.13;64.78
79413;BME280;68863;49.528;11.010;2023-08-17T03:47:06;98345.41;;;23.02;65.31
79413;BME280;68863;49.528;11.010;2023-08-17T03:48:40;98347.53;;;22.92;65.39
79413;BME280;68863;49.528;11.010;2023-08-17T03:50:48;98343.47;;;22.96;65.12
79413;BME280;68863;49.528;11.010;2023-08-17T03:51:50;98357.06;;;22.94;65.70
79413;BME280;68863;49.528;11.010;2023-08-17T03:54:38;98349.53;;;22.90;65.78
79413;BME280;68863;49.528;11.010;2023-08-17T03:55:49;98345.66;;;23.07;65.42
79413;BME280;68863;49.528;11.010;2023-08-17T03:57:39;98349.47;;;22.98;65.83
79413;BME280;68863;49.528;11.010;2023-08-17T03:58:54;98342.63;;;23.10;65.49
79413;BME280;68863;49.528;11.010;2023-08-17T04:00:42;98355.25;;;23.16;65.38
79413;BME280;68863;49.528;11.010;2023-08-17T04:01:57;98345.47;;;23.09;65.26
79413;BME280;68863;49.528;11.010;2023-08-17T04:03:22;98350.00;;;23.08;65.14
79413;BME280;68863;49.528;11.010;2023-08-17T04:04:28;98354.16;;;22.96;65.45
79413;BME280;68863;49.528;11.010;2023-08-17T04:05:50;98351.84;;;22.93;65.66
79413;BME280;68863;49.528;11.010;2023-08-17T04:09:45;98351.75;;;22.86;65.45
79413;BME280;68863;49.528;11.010;2023-08-17T04:11:47;98351.13;;;22.99;65.30
79413;BME280;68863;49.528;11.010;2023-08-17T04:13:33;98350.75;;;23.02;65.04
79413;BME280;68863;49.528;11.010;2023-08-17T04:17:03;98349.28;;;22.99;65.33
79413;BME280;68863;49.528;11.010;2023-08-17T04:18:26;98354.06;;;23.04;65.42
79413;BME280;68863;49.528;11.010;2023-08-17T04:19:41;98355.25;;;22.87;65.71
79413;BME280;68863;49.528;11.010;2023-08-17T04:21:22;98354.06;;;22.74;65.74
79413;BME280;68863;49.528;11.010;2023-08-17T04:22:30;98360.69;;;22.64;66.35
79413;BME280;68863;49.528;11.010;2023-08-17T04:23:58;98362.34;;;22.65;66.24
79413;BME280;68863;49.528;11.010;2023-08-17T04:25:16;98369.53;;;22.64;66.21
79413;BME280;68863;49.528;11.010;2023-08-17T04:26:19;98366.44;;;22.75;66.03
79413;BME280;68863;49.528;11.010;2023-08-17T04:27:29;98363.75;;;22.75;65.85
79413;BME280;68863;49.528;11.010;2023-08-17T04:29:10;98368.28;;;22.75;66.05
79413;BME280;68863;49.528;11.010;2023-08-17T04:30:32;98368.16;;;22.68;66.27
79413;BME280;68863;49.528;11.010;2023-08-17T04:33:41;98366.78;;;22.87;65.71
79413;BME280;68863;49.528;11.010;2023-08-17T04:34:51;98359.44;;;23.04;64.86
79413;BME280;68863;49.528;11.010;2023-08-17T04:38:38;98366.06;;;22.79;66.08
79413;BME280;68863;49.528;11.010;2023-08-17T04:40:37;98367.06;;;22.78;65.73
79413;BME280;68863;49.528;11.010;2023-08-17T04:46:22;98377.97;;;22.76;65.58
79413;BME280;68863;49.528;11.010;2023-08-17T04:49:40;98372.50;;;22.69;65.90
79413;BME280;68863;49.528;11.010;2023-08-17T04:52:34;98364.47;;;22.55;66.40
79413;BME280;68863;49.528;11.010;2023-08-17T04:53:40;98376.38;;;22.52;66.71
79413;BME280;68863;49.528;11.010;2023-08-17T04:59:59;98373.03;;;22.50;67.07
79413;BME280;68863;49.528;11.010;2023-08-17T05:42:39;98378.47;;;22.94;66.37
79413;BME280;68863;49.528;11.010;2023-08-17T05:44:31;98379.81;;;23.05;65.69
79413;BME280;68863;49.528;11.010;2023-08-17T05:46:33;98382.44;;;22.98;65.55
79413;BME280;68863;49.528;11.010;2023-08-17T05:58:16;98389.81;;;23.11;65.23
79413;BME280;68863;49.528;11.010;2023-08-17T05:59:48;98389.81;;;23.11;65.43
79413;BME280;68863;49.528;11.010;2023-08-17T06:02:03;98389.63;;;23.13;65.49
79413;BME280;68863;49.528;11.010;2023-08-17T06:03:34;98382.34;;;23.21;65.14
79413;BME280;68863;49.528;11.010;2023-08-17T06:04:40;98390.38;;;23.21;64.42
79413;BME280;68863;49.528;11.010;2023-08-17T06:05:58;98390.84;;;23.25;64.64
79413;BME280;68863;49.528;11.010;2023-08-17T06:07:06;98383.88;;;23.31;64.58
79413;BME280;68863;49.528;11.010;2023-08-17T06:08:09;98384.09;;;23.29;64.92
79413;BME280;68863;49.528;11.010;2023-08-17T06:09:09;98384.53;;;23.33;64.97
79413;BME280;68863;49.528;11.010;2023-08-17T06:10:28;98384.09;;;23.29;64.78
79413;BME280;68863;49.528;11.010;2023-08-17T06:11:35;98392.59;;;23.33;65.24
79413;BME280;68863;49.528;11.010;2023-08-17T06:12:37;98391.56;;;23.34;65.37
79413;BME280;68863;49.528;11.010;2023-08-17T06:13:38;98394.41;;;23.32;65.21
79413;BME280;68863;49.528;11.010;2023-08-17T06:14:38;98395.06;;;23.34;65.53
79413;BME280;68863;49.528;11.010;2023-08-17T06:15:38;98400.63;;;23.33;65.29
79413;BME280;68863;49.528;11.010;2023-08-17T06:16:41;98396.53;;;23.37;65.63
79413;BME280;68863;49.528;11.010;2023-08-17T06:17:41;98399.03;;;23.38;65.39
79413;BME280;68863;49.528;11.010;2023-08-17T06:18:42;98393.47;;;23.40;65.51
79413;BME280;68863;49.528;11.010;2023-08-17T06:19:43;98396.59;;;23.43;65.45
79413;BME280;68863;49.528;11.010;2023-08-17T06:20:43;98393.47;;;23.40;65.70
79413;BME280;68863;49.528;11.010;2023-08-17T06:21:46;98403.31;;;23.33;65.39
79413;BME280;68863;49.528;11.010;2023-08-17T06:22:47;98392.13;;;23.29;65.39
79413;BME280;68863;49.528;11.010;2023-08-17T06:23:49;98388.50;;;23.37;65.00
79413;BME280;68863;49.528;11.010;2023-08-17T06:24:49;98384.81;;;23.38;65.53
79413;BME280;68863;49.528;11.010;2023-08-17T06:25:49;98388.41;;;23.45;65.23
79413;BME280;68863;49.528;11.010;2023-08-17T06:26:50;98395.88;;;23.50;65.01
79413;BME280;68863;49.528;11.010;2023-08-17T06:27:50;98388.41;;;23.45;65.18
79413;BME280;68863;49.528;11.010;2023-08-17T06:28:53;98388.41;;;23.45;65.54
79413;BME280;68863;49.528;11.010;2023-08-17T06:29:53;98383.97;;;23.52;65.41
79413;BME280;68863;49.528;11.010;2023-08-17T06:30:56;98387.25;;;23.54;65.46
79413;BME280;68863;49.528;11.010;2023-08-17T06:31:56;98388.53;;;23.58;65.00
79413;BME280;68863;49.528;11.010;2023-08-17T06:32:57;98389.81;;;23.62;64.69
79413;BME280;68863;49.528;11.010;2023-08-17T06:33:57;98388.34;;;23.60;64.98
79413;BME280;68863;49.528;11.010;2023-08-17T06:34:57;98384.00;;;23.59;64.59
79413;BME280;68863;49.528;11.010;2023-08-17T06:35:58;98382.00;;;23.61;64.83
79413;BME280;68863;49.528;11.010;2023-08-17T06:37:01;98379.09;;;23.62;64.80
79413;BME280;68863;49.528;11.010;2023-08-17T06:38:02;98378.84;;;23.57;64.91
79413;BME280;68863;49.528;11.010;2023-08-17T06:39:02;98384.47;;;23.62;64.15
79413;BME280;68863;49.528;11.010;2023-08-17T06:40:06;98384.28;;;23.64;64.25
79413;BME280;68863;49.528;11.010;2023-08-17T06:41:06;98376.06;;;23.65;64.69
79413;BME280;68863;49.528;11.010;2023-08-17T06:42:06;98376.34;;;23.70;63.88
79413;BME280;68863;49.528;11.010;2023-08-17T06:43:07;98377.16;;;23.71;63.92
79413;BME280;68863;49.528;11.010;2023-08-17T06:44:07;98374.69;;;23.69;64.08
79413;BME280;68863;49.528;11.010;2023-08-17T06:45:08;98381.41;;;23.65;64.06
79413;BME280;68863;49.528;11.010;2023-08-17T06:46:08;98384.00;;;23.74;64.63
79413;BME280;68863;49.528;11.010;2023-08-17T06:47:08;98380.13;;;23.76;64.27
79413;BME280;68863;49.528;11.010;2023-08-17T06:48:08;98379.31;;;23.76;64.77
79413;BME280;68863;49.528;11.010;2023-08-17T06:49:10;98382.22;;;23.81;64.80
79413;BME280;68863;49.528;11.010;2023-08-17T06:50:11;98380.38;;;23.81;64.45
79413;BME280;68863;49.528;11.010;2023-08-17T06:51:11;98384.91;;;23.81;64.97
79413;BME280;68863;49.528;11.010;2023-08-17T06:52:12;98380.63;;;23.86;64.39
79413;BME280;68863;49.528;11.010;2023-08-17T06:53:12;98387.69;;;23.87;64.65
79413;BME280;68863;49.528;11.010;2023-08-17T06:54:12;98375.09;;;23.88;64.34
79413;BME280;68863;49.528;11.010;2023-08-17T06:55:13;98383.31;;;23.86;64.53
79413;BME280;68863;49.528;11.010;2023-08-17T06:56:13;98383.75;;;23.90;64.19
79413;BME280;68863;49.528;11.010;2023-08-17T06:57:13;98381.91;;;23.90;64.10
79413;BME280;68863;49.528;11.010;2023-08-17T06:58:13;98381.72;;;23.92;64.46
79413;BME280;68863;49.528;11.010;2023-08-17T06:59:14;98382.72;;;23.91;65.04
79413;BME280;68863;49.528;11.010;2023-08-17T07:00:14;98384.88;;;23.95;65.22
79413;BME280;68863;49.528;11.010;2023-08-17T07:01:15;98382.81;;;23.98;64.67
79413;BME280;68863;49.528;11.010;2023-08-17T07:02:15;98378.47;;;23.96;64.33
79413;BME280;68863;49.528;11.010;2023-08-17T07:03:15;98384.66;;;23.97;64.35
79413;BME280;68863;49.528;11.010;2023-08-17T07:04:16;98387.34;;;23.97;64.75
79413;BME280;68863;49.528;11.010;2023-08-17T07:05:17;98391.69;;;23.98;64.50
79413;BME280;68863;49.528;11.010;2023-08-17T07:06:18;98382.44;;;24.01;64.12
79413;BME280;68863;49.528;11.010;2023-08-17T07:07:19;98388.25;;;24.04;64.29
79413;BME280;68863;49.528;11.010;2023-08-17T07:08:19;98394.22;;;24.06;64.22
79413;BME280;68863;49.528;11.010;2023-08-17T07:09:20;98392.22;;;24.08;63.79
79413;BME280;68863;49.528;11.010;2023-08-17T07:10:21;98399.88;;;24.11;64.42
79413;BME280;68863;49.528;11.010;2023-08-17T07:11:21;98394.50;;;24.11;64.01
79413;BME280;68863;49.528;11.010;2023-08-17T07:12:21;98393.84;;;24.09;63.96
79413;BME280;68863;49.528;11.010;2023-08-17T07:13:23;98391.41;;;24.14;64.76
79413;BME280;68863;49.528;11.010;2023-08-17T07:14:24;98398.47;;;24.15;63.82
79413;BME280;68863;49.528;11.010;2023-08-17T07:15:24;98395.41;;;24.18;64.20
79413;BME280;68863;49.528;11.010;2023-08-17T07:16:25;98397.88;;;24.20;63.82
79413;BME280;68863;49.528;11.010;2023-08-17T07:17:25;98395.81;;;24.22;63.39
79413;BME280;68863;49.528;11.010;2023-08-17T07:18:25;98401.84;;;24.24;63.30
79413;BME280;68863;49.528;11.010;2023-08-17T07:19:26;98401.63;;;24.26;63.37
79413;BME280;68863;49.528;11.010;2023-08-17T07:20:27;98404.16;;;24.27;63.05
79413;BME280;68863;49.528;11.010;2023-08-17T07:21:27;98406.25;;;24.32;63.33
79413;BME280;68863;49.528;11.010;2023-08-17T07:22:27;98409.56;;;24.34;62.96
79413;BME280;68863;49.528;11.010;2023-08-17T07:23:27;98397.63;;;24.36;62.16
79413;BME280;68863;49.528;11.010;2023-08-17T07:24:28;98410.00;;;24.37;62.87
79413;BME280;68863;49.528;11.010;2023-08-17T07:25:28;98404.28;;;24.40;62.41
79413;BME280;68863;49.528;11.010;2023-08-17T07:26:28;98405.75;;;24.43;62.50
79413;BME280;68863;49.528;11.010;2023-08-17T07:27:29;98405.09;;;24.41;62.15
79413;BME280;68863;49.528;11.010;2023-08-17T07:28:29;98408.44;;;24.43;62.50
79413;BME280;68863;49.528;11.010;2023-08-17T07:29:30;98404.72;;;24.44;63.23
79413;BME280;68863;49.528;11.010;2023-08-17T07:30:30;98405.56;;;24.44;62.87
79413;BME280;68863;49.528;11.010;2023-08-17T07:31:31;98405.75;;;24.43;62.16
79413;BME280;68863;49.528;11.010;2023-08-17T07:32:34;98409.50;;;24.49;61.90
79413;BME280;68863;49.528;11.010;2023-08-17T07:33:34;98409.72;;;24.47;61.60
79413;BME280;68863;49.528;11.010;2023-08-17T07:34:36;98408.06;;;24.46;62.46
79413;BME280;68863;49.528;11.010;2023-08-17T07:35:36;98411.38;;;24.48;62.41
79413;BME280;68863;49.528;11.010;2023-08-17T07:36:36;98410.34;;;24.49;60.92
79413;BME280;68863;49.528;11.010;2023-08-17T07:37:37;98411.81;;;24.52;61.15
79413;BME280;68863;49.528;11.010;2023-08-17T07:38:37;98412.47;;;24.54;61.21
79413;BME280;68863;49.528;11.010;2023-08-17T07:39:37;98406.06;;;24.55;61.52
79413;BME280;68863;49.528;11.010;2023-08-17T07:40:37;98408.53;;;24.56;61.71
79413;BME280;68863;49.528;11.010;2023-08-17T07:41:38;98401.97;;;24.59;61.87
79413;BME280;68863;49.528;11.010;2023-08-17T07:42:38;98406.31;;;24.60;61.23
79413;BME280;68863;49.528;11.010;2023-08-17T07:43:38;98403.44;;;24.61;61.31
79413;BME280;68863;49.528;11.010;2023-08-17T07:44:39;98406.13;;;24.61;61.28
79413;BME280;68863;49.528;11.010;2023-08-17T07:45:40;98398.06;;;24.61;61.11
79413;BME280;68863;49.528;11.010;2023-08-17T07:46:40;98399.72;;;24.62;60.94
79413;BME280;68863;49.528;11.010;2023-08-17T07:47:40;98402.59;;;24.61;61.29
79413;BME280;68863;49.528;11.010;2023-08-17T07:48:41;98403.44;;;24.61;61.47
79413;BME280;68863;49.528;11.010;2023-08-17T07:49:41;98408.22;;;24.66;60.75
79413;BME280;68863;49.528;11.010;2023-08-17T07:50:41;98409.66;;;24.68;61.12
79413;BME280;68863;49.528;11.010;2023-08-17T07:51:42;98420.22;;;24.70;61.60
79413;BME280;68863;49.528;11.010;2023-08-17T07:52:42;98408.66;;;24.69;61.53
79413;BME280;68863;49.528;11.010;2023-08-17T07:53:42;98412.19;;;24.70;61.79
79413;BME280;68863;49.528;11.010;2023-08-17T07:54:43;98408.25;;;24.73;61.79
79413;BME280;68863;49.528;11.010;2023-08-17T07:55:45;98412.41;;;24.75;61.21
79413;BME280;68863;49.528;11.010;2023-08-17T07:56:45;98407.84;;;24.76;61.03
79413;BME280;68863;49.528;11.010;2023-08-17T07:57:45;98402.34;;;24.84;61.04
79413;BME280;68863;49.528;11.010;2023-08-17T07:58:45;98403.16;;;24.84;61.12
79413;BME280;68863;49.528;11.010;2023-08-17T07:59:46;98407.53;;;24.85;61.60
79413;BME280;68863;49.528;11.010;2023-08-17T08:00:46;98401.13;;;24.86;61.05
79413;BME280;68863;49.528;11.010;2023-08-17T08:01:46;98402.59;;;24.89;61.01
79413;BME280;68863;49.528;11.010;2023-08-17T08:02:47;98401.78;;;24.95;60.76
79413;BME280;68863;49.528;11.010;2023-08-17T08:03:47;98402.63;;;24.96;61.35
79413;BME280;68863;49.528;11.010;2023-08-17T08:04:47;98402.22;;;24.99;60.15
79413;BME280;68863;49.528;11.010;2023-08-17T08:05:48;98401.03;;;25.01;60.44
79413;BME280;68863;49.528;11.010;2023-08-17T08:06:48;98399.97;;;25.02;60.34
79413;BME280;68863;49.528;11.010;2023-08-17T08:07:48;98395.88;;;25.06;60.69
79413;BME280;68863;49.528;11.010;2023-08-17T08:08:49;98397.53;;;25.07;60.16
79413;BME280;68863;49.528;11.010;2023-08-17T08:09:49;98402.16;;;25.13;60.48
79413;BME280;68863;49.528;11.010;2023-08-17T08:10:49;98393.69;;;25.16;61.05
79413;BME280;68863;49.528;11.010;2023-08-17T08:11:50;98404.06;;;25.26;60.80
79413;BME280;68863;49.528;11.010;2023-08-17T08:12:50;98396.66;;;25.28;60.86
79413;BME280;68863;49.528;11.010;2023-08-17T08:13:51;98398.91;;;25.31;60.52
79413;BME280;68863;49.528;11.010;2023-08-17T08:14:51;98402.63;;;25.30;60.42
79413;BME280;68863;49.528;11.010;2023-08-17T08:15:51;98397.03;;;25.25;60.18
79413;BME280;68863;49.528;11.010;2023-08-17T08:16:51;98392.91;;;25.29;59.76
79413;BME280;68863;49.528;11.010;2023-08-17T08:17:52;98401.41;;;25.33;59.85
79413;BME280;68863;49.528;11.010;2023-08-17T08:18:52;98393.34;;;25.33;60.13
79413;BME280;68863;49.528;11.010;2023-08-17T08:19:52;98397.69;;;25.34;60.36
79413;BME280;68863;49.528;11.010;2023-08-17T08:20:54;98397.72;;;25.40;60.40
79413;BME280;68863;49.528;11.010;2023-08-17T08:21:54;98392.34;;;25.40;60.83
79413;BME280;68863;49.528;11.010;2023-08-17T08:22:54;98399.59;;;25.40;60.47
79413;BME280;68863;49.528;11.010;2023-08-17T08:23:56;98392.34;;;25.40;59.65
79413;BME280;68863;49.528;11.010;2023-08-17T08:24:57;98399.38;;;25.41;58.29
79413;BME280;68863;49.528;11.010;2023-08-17T08:25:57;98391.72;;;25.38;58.79
79413;BME280;68863;49.528;11.010;2023-08-17T08:26:58;98389.25;;;25.37;58.27
79413;BME280;68863;49.528;11.010;2023-08-17T08:27:58;98390.06;;;25.37;58.88
79413;BME280;68863;49.528;11.010;2023-08-17T08:28:58;98389.25;;;25.37;59.42
79413;BME280;68863;49.528;11.010;2023-08-17T08:29:59;98387.16;;;25.39;59.49
79413;BME280;68863;49.528;11.010;2023-08-17T08:31:02;98388.84;;;25.40;59.88
79413;BME280;68863;49.528;11.010;2023-08-17T08:32:03;98390.50;;;25.41;59.78
79413;BME280;68863;49.528;11.010;2023-08-17T08:33:04;98382.44;;;25.41;59.74
79413;BME280;68863;49.528;11.010;2023-08-17T08:34:04;98388.03;;;25.46;59.57
79413;BME280;68863;49.528;11.010;2023-08-17T08:35:05;98381.81;;;25.46;59.95
79413;BME280;68863;49.528;11.010;2023-08-17T08:36:05;98382.91;;;25.51;60.06
79413;BME280;68863;49.528;11.010;2023-08-17T08:37:06;98381.47;;;25.55;59.89
79413;BME280;68863;49.528;11.010;2023-08-17T08:38:06;98379.81;;;25.61;60.21
79413;BME280;68863;49.528;11.010;2023-08-17T08:39:07;98380.25;;;25.64;59.29
79413;BME280;68863;49.528;11.010;2023-08-17T08:40:11;98386.03;;;25.68;59.98
79413;BME280;68863;49.528;11.010;2023-08-17T08:41:13;98386.03;;;25.68;60.05
79413;BME280;68863;49.528;11.010;2023-08-17T08:42:13;98380.25;;;25.64;59.65
79413;BME280;68863;49.528;11.010;2023-08-17T08:43:14;98380.84;;;25.66;58.92
79413;BME280;68863;49.528;11.010;2023-08-17T08:44:15;98381.88;;;25.65;59.04
79413;BME280;68863;49.528;11.010;2023-08-17T08:45:15;98379.84;;;25.67;58.74
79413;BME280;68863;49.528;11.010;2023-08-17T08:46:17;98380.84;;;25.66;58.05
79413;BME280;68863;49.528;11.010;2023-08-17T08:47:18;98378.16;;;25.66;58.08
79413;BME280;68863;49.528;11.010;2023-08-17T08:48:19;98378.19;;;25.73;58.01
79413;BME280;68863;49.528;11.010;2023-08-17T08:49:23;98378.63;;;25.77;59.04
79413;BME280;68863;49.528;11.010;2023-08-17T08:50:25;98374.50;;;25.81;58.19
79413;BME280;68863;49.528;11.010;2023-08-17T08:51:32;98370.59;;;25.90;58.62
79413;BME280;68863;49.528;11.010;2023-08-17T08:52:36;98374.97;;;25.91;58.30
79413;BME280;68863;49.528;11.010;2023-08-17T08:53:44;98372.28;;;25.91;58.96
79413;BME280;68863;49.528;11.010;2023-08-17T08:54:49;98372.66;;;25.88;59.08
79413;BME280;68863;49.528;11.010;2023-08-17T08:55:58;98374.97;;;25.91;58.31
79413;BME280;68863;49.528;11.010;2023-08-17T08:57:03;98380.13;;;25.93;58.22
79413;BME280;68863;49.528;11.010;2023-08-17T08:58:06;98374.56;;;25.94;58.09
79413;BME280;68863;49.528;11.010;2023-08-17T08:59:07;98377.84;;;25.96;57.14
79413;BME280;68863;49.528;11.010;2023-08-17T09:00:09;98376.22;;;25.95;56.55
79413;BME280;68863;49.528;11.010;2023-08-17T09:01:10;98370.84;;;25.95;57.43
79413;BME280;68863;49.528;11.010;2023-08-17T09:02:14;98377.47;;;25.99;57.07
79413;BME280;68863;49.528;11.010;2023-08-17T09:03:16;98369.16;;;26.01;57.01
79413;BME280;68863;49.528;11.010;2023-08-17T09:04:18;98376.44;;;26.07;56.89
79413;BME280;68863;49.528;11.010;2023-08-17T09:05:18;98375.59;;;26.06;57.87
79413;BME280;68863;49.528;11.010;2023-08-17T09:06:19;98373.94;;;26.12;56.96
79413;BME280;68863;49.528;11.010;2023-08-17T09:07:22;98370.44;;;26.11;57.27
79413;BME280;68863;49.528;11.010;2023-08-17T09:08:28;98372.09;;;26.12;57.87
79413;BME280;68863;49.528;11.010;2023-08-17T09:09:29;98377.06;;;26.15;56.96
79413;BME280;68863;49.528;11.010;2023-08-17T09:12:49;98375.81;;;26.11;54.19
79413;BME280;68863;49.528;11.010;2023-08-17T09:13:50;98382.03;;;26.12;54.27
79413;BME280;68863;49.528;11.010;2023-08-17T09:14:50;98373.75;;;26.13;55.49
79413;BME280;68863;49.528;11.010;2023-08-17T09:15:51;98369.81;;;26.16;56.06
79413;BME280;68863;49.528;11.010;2023-08-17T09:16:51;98375.19;;;26.16;55.67
79413;BME280;68863;49.528;11.010;2023-08-17T09:17:51;98374.78;;;26.19;54.96
79413;BME280;68863;49.528;11.010;2023-08-17T09:18:52;98363.81;;;26.21;53.96
79413;BME280;68863;49.528;11.010;2023-08-17T09:19:54;98372.31;;;26.18;54.29
79413;BME280;68863;49.528;11.010;2023-08-17T09:20:54;98375.38;;;26.21;54.07
79413;BME280;68863;49.528;11.010;2023-08-17T09:21:54;98370.25;;;26.26;54.33
79413;BME280;68863;49.528;11.010;2023-08-17T09:22:55;98367.97;;;26.30;55.66
79413;BME280;68863;49.528;11.010;2023-08-17T09:23:58;98366.28;;;26.29;55.35
79413;BME280;68863;49.528;11.010;2023-08-17T09:24:58;98364.00;;;26.32;53.90
79413;BME280;68863;49.528;11.010;2023-08-17T09:26:08;98367.56;;;26.46;54.78
79413;BME280;68863;49.528;11.010;2023-08-17T09:27:11;98363.84;;;26.47;53.11
79413;BME280;68863;49.528;11.010;2023-08-17T09:28:14;98365.72;;;26.47;53.26
79413;BME280;68863;49.528;11.010;2023-08-17T09:29:20;98365.50;;;26.55;53.81
79413;BME280;68863;49.528;11.010;2023-08-17T09:30:20;98361.56;;;26.57;54.91
79413;BME280;68863;49.528;11.010;2023-08-17T09:31:21;98364.25;;;26.57;54.67
79413;BME280;68863;49.528;11.010;2023-08-17T09:32:21;98363.44;;;26.57;54.77
79413;BME280;68863;49.528;11.010;2023-08-17T09:33:27;98364.84;;;26.59;55.33
79413;BME280;68863;49.528;11.010;2023-08-17T09:34:30;98363.41;;;26.63;55.45
79413;BME280;68863;49.528;11.010;2023-08-17T09:35:31;98365.91;;;26.65;54.67
79413;BME280;68863;49.528;11.010;2023-08-17T09:36:35;98365.50;;;26.68;54.23
79413;BME280;68863;49.528;11.010;2023-08-17T09:37:35;98365.50;;;26.68;54.93
79413;BME280;68863;49.528;11.010;2023-08-17T09:38:36;98362.34;;;26.71;55.52
79413;BME280;68863;49.528;11.010;2023-08-17T09:57:39;98345.97;;;26.86;53.04
79413;BME280;68863;49.528;11.010;2023-08-17T10:07:33;98343.25;;;26.93;53.49
79413;BME280;68863;49.528;11.010;2023-08-17T10:09:19;98343.03;;;27.01;53.59
79413;BME280;68863;49.528;11.010;2023-08-17T10:14:55;98341.13;;;27.15;55.13
79413;BME280;68863;49.528;11.010;2023-08-17T10:34:34;98333.69;;;27.55;54.07
79413;BME280;68863;49.528;11.010;2023-08-17T10:35:36;98333.22;;;27.65;53.42
79413;BME280;68863;49.528;11.010;2023-08-17T10:36:39;98327.00;;;27.64;54.29
79413;BME280;68863;49.528;11.010;2023-08-17T10:37:40;98329.47;;;27.66;54.31
79413;BME280;68863;49.528;11.010;2023-08-17T10:38:41;98340.72;;;27.63;53.63
79413;BME280;68863;49.528;11.010;2023-08-17T10:39:50;98330.75;;;27.63;53.26
79413;BME280;68863;49.528;11.010;2023-08-17T10:41:14;98336.16;;;27.63;54.05
79413;BME280;68863;49.528;11.010;2023-08-17T10:42:14;98326.59;;;27.60;53.57
79413;BME280;68863;49.528;11.010;2023-08-17T10:43:15;98331.59;;;27.57;52.80
79413;BME280;68863;49.528;11.010;2023-08-17T10:44:17;98331.19;;;27.53;53.85
79413;BME280;68863;49.528;11.010;2023-08-17T10:46:21;98338.06;;;27.56;53.10
79413;BME280;68863;49.528;11.010;2023-08-17T10:47:32;98326.22;;;27.57;54.32